KSLB/SLB METAR and TAF weather

Enter ICAO airport designator
Station Type Date Time Source
KSLB METAR 2019/08/21 23:15 UTC NOAA

KSLB 212315Z AUTO 00000KT 10SM SCT017 20/18 A3004 RMK AO2


Station Type Date Time Source
KSLB Decoded METAR 2019/08/21 23:15 UTC NOAA

Station name not available
Aug 21, 2019 - 07:15 PM EDT / 2019.08.21 2315 UTC
Wind: Calm:0
Visibility: 10 mile(s):0
Sky conditions: partly cloudy
Temperature: 68 F (20 C)
Dew Point: 64 F (18 C)
Relative Humidity: 88%
Pressure (altimeter): 30.04 in. Hg (1017 hPa)
ob: KSLB 212315Z AUTO 00000KT 10SM SCT017 20/18 A3004 RMK AO2
cycle: 23

Station Type Date Time Source
KSLB TAF UTC NOAA

Error!

Example: see airport list